• Join FlightAware (Why Join?)
  • Login
  • US Flag 
07:46PM EST


 

Airport Tracker/Info


-or-


 

Live Flight TrackerFlight Track Log ✈ N75AW ✈ 11-Jul-2013 ✈ KAPF - KGNV

Flight Track Log - Related Links

Times and Time Zones

All times are in EDT time to prevent confusion due to time zone crossing. See the N75AW flight status page for this flight to view local times or setup timezone preferences in your user account.

Time Position Orientation Groundspeed Altitude Reporting Facility
EDT Latitude Longitude Course Direction KTS MPH feet Rate Location/Type
06:35AM 26.1306 -81.6719 354° North 222 255 4,000  Level Miami Center
06:36AM 26.1889 -81.6814 352° North 210 242 5,700 1,680 Climbing Miami Center
06:37AM 26.2492 -81.6883 354° North 215 247 7,400 1,620 Climbing Miami Center
06:38AM 26.3075 -81.6931 356° North 234 269 9,000 1,500 Climbing Miami Center
06:39AM 26.4608 -81.8049 354° North  Level FlightAware Approximate
06:39AM 26.3656 -81.7025 352° North 226 260 10,500  Level Miami Center
06:40AM 26.5231 -81.8118 354° North  Level FlightAware Approximate
06:40AM 26.4172 -81.7161 347° North 219 252 12,100  Level Miami Center
06:41AM 26.5855 -81.8188 354° North  Level FlightAware Approximate
06:41AM 26.4833 -81.7350 346° North 219 252 13,700  Level Miami Center
06:42AM 26.5436 -81.7469 350° North 219 252 15,300 1,560 Climbing Miami Center
06:43AM 26.6058 -81.7611 348° North 219 252 16,900 1,440 Climbing Miami Center
06:44AM 26.6681 -81.7728 350° North 219 252 18,200 600 Climbing Miami Center
06:45AM 26.7364 -81.7897 348° North 225 259 18,100 -60 Descending Miami Center
06:46AM 26.8089 -81.8044 350° North 250 288 18,100  Level Miami Center
06:47AM 26.8833 -81.8214 349° North 264 304 18,100  Level Miami Center
06:48AM 26.9603 -81.8364 350° North 269 310 18,100  Level Miami Center
06:49AM 27.0286 -81.8486 351° North 281 323 18,100  Level Miami Center
06:50AM 27.1156 -81.8689 348° North 281 323 18,100  Level Miami Center
06:51AM 27.1861 -81.8836 349° North 272 313 18,100  Level Miami Center
06:52AM 27.2628 -81.9008 349° North 272 313 18,100  Level Miami Center
06:53AM 27.3333 -81.9108 353° North 279 321 18,100  Level Miami Center
06:54AM 27.4081 -81.9211 353° North 273 314 18,100  Level Miami Center
06:55AM 27.4911 -81.9367 351° North 272 313 18,100  Level Miami Center
06:56AM 27.5678 -81.9469 353° North 277 319 18,100  Level Miami Center
06:57AM 27.6447 -81.9575 353° North 277 319 18,100  Level Miami Center
06:59AM 27.8150 -81.9844 352° North 278 320 18,100  Level Jacksonville Center
07:00AM 27.8944 -81.9981 351° North 278 320 18,100  Level Jacksonville Center
07:01AM 27.9694 -82.0092 353° North 278 320 18,100  Level Jacksonville Center
07:02AM 28.0489 -82.0225 352° North 278 320 18,100  Level Jacksonville Center
07:03AM 28.1261 -82.0336 353° North 278 320 18,100 -60 Level Jacksonville Center
07:04AM 28.2056 -82.0469 352° North 278 320 18,000 -540 Descending Jacksonville Center
07:05AM 28.2869 -82.0581 353° North 278 320 17,100 -960 Descending Jacksonville Center
07:06AM 28.3706 -82.0717 352° North 289 333 16,100 -1,020 Descending Jacksonville Center
07:07AM 28.4519 -82.0850 352° North 296 341 15,100 -900 Descending Jacksonville Center
07:08AM 28.5336 -82.0986 352° North 296 341 14,300 -540 Descending Jacksonville Center
07:09AM 28.6025 -82.1100 352° North 280 322 14,100 -660 Descending Jacksonville Center
07:10AM 28.6483 -82.1167 353° North 275 316 13,300 -1,380 Descending Jacksonville Center
07:11AM 28.7300 -82.1278 353° North 291 335 11,900 -1,440 Descending Jacksonville Center
07:12AM 28.8156 -82.1414 352° North 294 338 10,500 -960 Descending Jacksonville Center
07:13AM 28.8825 -82.1503 353° North 287 330 10,100 -300 Descending Jacksonville Center
07:13AM 28.9219 -82.1572 351° North 282 325 10,100  Level Jacksonville Center
07:14AM 28.9869 -82.1661 353° North 261 300 10,100  Level Jacksonville Center
07:15AM 29.0308 -82.1731 352° North 253 291 10,100  Level Jacksonville Center
07:15AM 29.0558 -82.1775 351° North 256 295 10,100  Level Jacksonville Center
07:16AM 29.1058 -82.1844 353° North 255 293 10,100 -300 Level Jacksonville Center
07:17AM 29.2000 -82.2003 352° North 256 295 9,600 -720 Descending Jacksonville Center
07:18AM 29.2583 -82.2069 354° North 273 314 8,700 -1,380 Descending Jacksonville Center
07:19AM 29.3400 -82.2231 350° North 277 319 7,200 -1,380 Descending Jacksonville Center
07:20AM 29.4089 -82.2322 353° North 267 307 5,800 -1,440 Descending Jacksonville Center
07:21AM 29.4883 -82.2436 353° North 254 292 4,300 -1,500 Descending Jacksonville Center
07:22AM 29.5508 -82.2553 351° North 250 288 3,000 -1,260 Descending Jacksonville Center
07:23AM 29.6136 -82.2714 347° North 235 270 1,900 -720 Descending Jacksonville Center
07:24AM 29.6617 -82.3047 329° Northwest 190 219 1,600 -300 Descending Jacksonville Center
07:26AM 29.6833 -82.2667 350° North  Level FlightAware Approximate
07:33AM 29.6901 -82.2718 350° North  Level Estimated